Time;durP1;ratioP1;P1;durP2;ratioP2;P2;SDS_P1;SDS_P2;PMS_P1;PMS_P2;Temp;Humidity;BMP_temperature;BMP_pressure;BME280_temperature;BME280_humidity;BME280_pressure;Samples;Min_cycle;Max_cycle;Signal;HPM_P1;HPM_P2
2022/03/17 00:03:45;;;;;;;85.47;39.85;;;;;;;9.36;51.68;100392.26;4408425;80;28548;-80
2022/03/17 00:09:46;;;;;;;83.05;39.30;;;;;;;9.14;52.92;100405.64;4416257;80;28511;-80
2022/03/17 00:15:48;;;;;;;85.35;39.00;;;;;;;9.39;51.37;100407.97;4405566;79;28517;-80
2022/03/17 00:21:49;;;;;;;84.72;38.95;;;;;;;9.44;51.54;100403.37;4398886;79;28520;-81
2022/03/17 00:27:50;;;;;;;89.25;42.38;;;;;;;9.45;51.67;100407.23;4433299;79;28540;-81
2022/03/17 00:33:52;;;;;;;86.72;40.85;;;;;;;9.15;53.04;100415.84;4434153;78;28506;-81
2022/03/17 00:39:53;;;;;;;90.03;41.18;;;;;;;9.06;53.20;100428.54;4438184;78;28504;-82
2022/03/17 00:45:56;;;;;;;87.50;41.28;;;;;;;9.25;52.51;100421.74;4443925;78;28508;-81
2022/03/17 00:51:57;;;;;;;85.90;41.00;;;;;;;9.19;52.37;100415.80;4387323;79;28503;-82
2022/03/17 00:57:59;;;;;;;95.67;43.70;;;;;;;9.13;53.03;100432.64;4379464;79;28481;-81
2022/03/17 01:04:00;;;;;;;92.72;42.98;;;;;;;9.10;52.74;100436.52;4394405;79;28504;-79
2022/03/17 01:10:01;;;;;;;94.60;42.58;;;;;;;8.98;53.52;100437.53;4361036;79;28575;-81
2022/03/17 01:16:03;;;;;;;84.67;42.78;;;;;;;8.90;53.85;100433.10;4446419;80;28519;-80
2022/03/17 01:22:05;;;;;;;86.63;41.55;;;;;;;8.96;52.82;100450.30;4375893;79;28497;-80
2022/03/17 01:28:06;;;;;;;85.80;41.75;;;;;;;8.89;53.21;100451.52;4409527;79;28577;-80
2022/03/17 01:34:09;;;;;;;84.42;41.80;;;;;;;8.97;53.02;100461.34;4434977;80;28501;-80
2022/03/17 01:40:11;;;;;;;85.57;42.62;;;;;;;8.71;54.08;100465.30;4399819;80;28515;-80
2022/03/17 01:46:14;;;;;;;94.10;43.15;;;;;;;8.59;54.49;100464.94;4423833;80;28539;-81
2022/03/17 01:52:16;;;;;;;82.65;40.05;;;;;;;8.35;56.09;100460.61;4423717;80;28520;-79
2022/03/17 01:58:18;;;;;;;83.17;41.13;;;;;;;8.01;58.17;100456.02;4438104;80;28539;-80
2022/03/17 02:04:20;;;;;;;84.25;39.00;;;;;;;8.00;58.38;100460.20;4420310;80;28491;-80
2022/03/17 02:10:22;;;;;;;77.78;39.40;;;;;;;7.88;58.16;100459.28;4346393;80;28514;-80
2022/03/17 02:16:28;;;;;;;78.35;39.20;;;;;;;7.94;58.05;100467.11;4359593;81;28505;-81
2022/03/17 02:22:30;;;;;;;82.25;40.52;;;;;;;7.82;58.35;100476.09;4377853;81;28517;-80
2022/03/17 02:28:33;;;;;;;85.87;41.05;;;;;;;7.66;58.86;100471.14;4410412;80;28527;-80
2022/03/17 02:34:34;;;;;;;79.15;39.53;;;;;;;7.63;59.98;100472.84;4388579;80;28473;-79
2022/03/17 02:40:36;;;;;;;78.97;39.83;;;;;;;7.22;62.74;100483.23;4372905;79;28452;-79
2022/03/17 02:46:38;;;;;;;84.90;39.95;;;;;;;7.31;61.03;100490.73;4381574;80;28523;-79
2022/03/17 02:52:40;;;;;;;87.62;39.38;;;;;;;7.08;63.81;100492.83;4429366;79;28508;-79
2022/03/17 02:58:42;;;;;;;73.28;37.17;;;;;;;6.79;66.05;100502.75;4368767;81;28505;-79
2022/03/17 03:04:43;;;;;;;85.32;40.78;;;;;;;7.07;63.56;100508.52;4360947;80;28460;-80
2022/03/17 03:10:45;;;;;;;79.25;37.90;;;;;;;6.89;65.08;100519.95;4357236;81;28452;-80
2022/03/17 03:16:46;;;;;;;79.05;37.20;;;;;;;6.84;64.77;100523.14;4363184;79;28519;-80
2022/03/17 03:22:48;;;;;;;84.25;38.67;;;;;;;6.55;67.16;100527.17;4362686;80;28473;-79
2022/03/17 03:28:49;;;;;;;82.10;37.42;;;;;;;6.59;66.63;100525.01;4384486;80;28539;-79
2022/03/17 03:34:51;;;;;;;73.80;35.43;;;;;;;6.44;67.03;100524.84;4440700;80;28509;-79
2022/03/17 03:40:53;;;;;;;71.60;34.03;;;;;;;6.42;66.31;100527.67;4394295;80;28471;-79
2022/03/17 03:46:55;;;;;;;74.72;34.60;;;;;;;6.92;62.77;100526.30;4400419;80;28501;-80
2022/03/17 03:52:56;;;;;;;74.85;35.80;;;;;;;7.03;62.43;100533.10;4430454;80;43689;-80
2022/03/17 03:59:01;;;;;;;71.30;34.65;;;;;;;7.18;60.64;100535.42;4439030;79;28510;-79
2022/03/17 04:05:01;;;;;;;65.32;33.40;;;;;;;7.29;59.51;100547.61;4438412;80;28597;-79
2022/03/17 04:11:02;;;;;;;64.60;32.17;;;;;;;7.05;60.48;100557.86;4431093;80;44143;-78
2022/03/17 04:17:04;;;;;;;65.50;33.63;;;;;;;7.15;58.83;100562.52;4359921;80;28506;-78
2022/03/17 04:23:05;;;;;;;74.90;35.23;;;;;;;7.18;59.31;100571.53;4437880;79;28529;-78
2022/03/17 04:29:09;;;;;;;78.02;38.38;;;;;;;6.98;59.95;100573.23;4445288;80;43412;-76
2022/03/17 04:35:11;;;;;;;80.03;38.13;;;;;;;6.74;61.45;100586.64;4393610;81;43440;-77
2022/03/17 04:41:13;;;;;;;72.20;35.25;;;;;;;6.65;61.26;100585.78;4400986;80;44293;-77
2022/03/17 04:47:15;;;;;;;70.03;34.13;;;;;;;6.38;62.94;100600.63;4401928;80;44104;-78
2022/03/17 04:53:35;;;;;;;68.75;34.35;;;;;;;5.76;67.33;100600.95;4399658;80;44122;-79
2022/03/17 04:59:36;;;;;;;67.72;32.42;;;;;;;5.72;67.41;100617.27;4424603;80;44181;-77
2022/03/17 05:05:39;;;;;;;66.97;32.35;;;;;;;5.95;65.10;100617.20;4456008;80;44103;-77
2022/03/17 05:11:40;;;;;;;64.72;32.63;;;;;;;6.14;63.92;100620.11;4454444;80;44118;-74
2022/03/17 05:17:41;;;;;;;73.75;32.85;;;;;;;6.17;63.92;100625.63;4429298;78;44149;-75
2022/03/17 05:23:43;;;;;;;68.12;32.73;;;;;;;6.02;64.76;100616.92;4448634;78;44130;-75
2022/03/17 05:29:44;;;;;;;69.07;31.37;;;;;;;6.38;62.59;100614.51;4358532;81;44099;-81
2022/03/17 05:35:46;;;;;;;70.12;33.28;;;;;;;6.16;63.54;100614.62;4427511;79;44102;-76
2022/03/17 05:41:47;;;;;;;74.95;35.33;;;;;;;5.71;66.84;100620.94;4441720;78;44330;-77
2022/03/17 05:47:53;;;;;;;72.70;33.85;;;;;;;5.74;67.56;100624.31;4344980;81;44221;-78
2022/03/17 05:53:58;;;;;;;61.42;31.10;;;;;;;5.97;65.89;100628.55;4334994;82;28552;-76
2022/03/17 05:59:59;;;;;;;63.33;31.55;;;;;;;5.85;66.67;100637.36;4338677;82;43780;-82
2022/03/17 06:06:04;;;;;;;62.27;30.08;;;;;;;6.17;65.30;100644.33;4332369;81;43484;-77
2022/03/17 06:12:13;;;;;;;65.52;29.65;;;;;;;6.21;64.90;100635.83;4333082;82;28521;-79
2022/03/17 06:18:20;;;;;;;64.37;29.52;;;;;;;6.46;63.79;100631.05;4341446;80;44135;-79
2022/03/17 06:24:21;;;;;;;59.88;28.90;;;;;;;6.62;63.06;100637.76;4334904;81;43263;-77
2022/03/17 06:30:31;;;;;;;62.85;30.45;;;;;;;6.86;61.41;100637.91;4351169;80;44144;-84
2022/03/17 06:36:33;;;;;;;60.90;30.55;;;;;;;6.94;61.13;100636.09;4370433;80;43414;-79
2022/03/17 06:42:38;;;;;;;58.87;28.73;;;;;;;6.97;60.90;100638.91;4350479;80;43269;-79
2022/03/17 06:48:42;;;;;;;61.08;29.50;;;;;;;7.04;60.67;100643.93;4328117;80;28528;-79
2022/03/17 06:54:54;;;;;;;65.40;30.77;;;;;;;7.27;60.19;100653.93;4342261;80;43375;-78
2022/03/17 07:00:57;;;;;;;69.90;32.08;;;;;;;6.84;62.29;100658.97;4413574;78;28494;-79
2022/03/17 07:07:08;;;;;;;63.35;30.88;;;;;;;7.03;61.49;100670.34;4406212;80;28536;-77
2022/03/17 07:13:10;;;;;;;58.83;29.52;;;;;;;7.30;60.91;100681.70;4340569;81;43080;-79
2022/03/17 07:19:11;;;;;;;62.10;30.55;;;;;;;7.59;59.82;100682.16;4365882;80;28520;-78
2022/03/17 07:25:13;;;;;;;65.62;29.80;;;;;;;7.52;60.57;100678.81;4359421;81;28461;-80
2022/03/17 07:31:15;;;;;;;58.48;28.57;;;;;;;7.86;59.12;100689.42;4356425;81;28499;-79
2022/03/17 07:37:19;;;;;;;62.30;30.67;;;;;;;7.93;57.84;100692.60;4338501;82;43414;-78
2022/03/17 07:43:23;;;;;;;62.85;30.70;;;;;;;7.56;59.68;100690.53;4314813;82;28477;-75
2022/03/17 07:49:28;;;;;;;64.65;30.88;;;;;;;8.22;57.05;100698.34;4319569;82;28533;-85
2022/03/17 07:55:30;;;;;;;62.03;32.05;;;;;;;8.10;57.04;100701.89;4341487;80;28543;-86
2022/03/17 08:01:31;;;;;;;66.80;33.28;;;;;;;8.28;56.61;100698.14;4342876;81;28582;-87
2022/03/17 08:07:33;;;;;;;66.02;31.62;;;;;;;8.06;56.59;100708.09;4321782;82;28466;-85
2022/03/17 08:13:34;;;;;;;60.85;31.42;;;;;;;8.64;54.46;100705.17;4343994;82;28454;-85
2022/03/17 08:19:37;;;;;;;65.42;31.05;;;;;;;9.14;53.65;100710.69;4339930;82;28524;-86
2022/03/17 08:25:38;;;;;;;57.40;28.27;;;;;;;9.48;51.97;100710.73;4352741;82;28481;-88
2022/03/17 08:31:40;;;;;;;54.93;28.10;;;;;;;9.15;52.36;100718.56;4343038;80;28500;-86
2022/03/17 08:37:45;;;;;;;59.95;28.87;;;;;;;9.46;50.36;100732.89;4435739;79;28520;-85
2022/03/17 08:43:48;;;;;;;53.52;27.85;;;;;;;9.73;49.72;100726.06;4446131;78;28524;-86
2022/03/17 08:49:49;;;;;;;43.70;22.25;;;;;;;10.03;47.84;100725.27;4405547;79;28504;-85
2022/03/17 08:55:52;;;;;;;43.73;22.67;;;;;;;9.87;45.92;100728.44;4394986;79;28581;-86
2022/03/17 09:01:53;;;;;;;50.73;25.43;;;;;;;11.79;40.86;100724.65;4404275;79;28461;-86
2022/03/17 09:07:55;;;;;;;42.05;22.48;;;;;;;12.39;40.67;100728.20;4434876;79;28481;-85
2022/03/17 09:13:58;;;;;;;39.20;21.57;;;;;;;12.65;38.86;100731.16;4391437;80;28561;-86
2022/03/17 09:19:59;;;;;;;37.90;20.08;;;;;;;12.50;39.05;100732.70;4367875;81;28513;-87
2022/03/17 09:26:01;;;;;;;35.75;18.62;;;;;;;12.82;38.03;100739.21;4368217;81;28507;-86
2022/03/17 09:32:03;;;;;;;31.68;18.17;;;;;;;13.18;36.90;100736.38;4362470;80;28532;-86
2022/03/17 09:38:06;;;;;;;34.05;16.60;;;;;;;12.91;36.67;100743.08;4448179;78;28549;-86
2022/03/17 09:44:07;;;;;;;24.40;12.95;;;;;;;13.35;35.51;100728.69;4438495;78;28535;-86
2022/03/17 09:50:13;;;;;;;19.73;9.55;;;;;;;13.81;34.12;100727.02;4372045;80;28537;-87
2022/03/17 09:56:15;;;;;;;19.23;9.95;;;;;;;13.53;32.41;100726.73;4392055;80;28578;-87
2022/03/17 10:02:17;;;;;;;18.98;8.65;;;;;;;13.79;31.70;100733.13;4369180;80;28549;-88
2022/03/17 10:08:21;;;;;;;18.05;10.10;;;;;;;13.72;31.47;100733.14;4456091;78;28470;-87
2022/03/17 10:14:44;;;;;;;18.73;9.28;;;;;;;13.87;31.52;100726.15;4477576;78;28548;-86
2022/03/17 10:20:46;;;;;;;17.73;9.63;;;;;;;14.33;31.05;100725.69;4343029;81;28505;-83
2022/03/17 10:26:54;;;;;;;16.57;8.35;;;;;;;14.38;31.25;100721.53;4366386;81;28484;-83
2022/03/17 10:33:01;;;;;;;15.68;8.60;;;;;;;14.64;30.50;100705.14;4364875;81;28567;-82
2022/03/17 10:39:09;;;;;;;16.00;8.55;;;;;;;14.66;30.85;100707.64;4358272;80;28539;-82
2022/03/17 10:45:10;;;;;;;15.23;8.68;;;;;;;14.20;30.49;100714.39;4374381;81;28512;-82
2022/03/17 10:51:17;;;;;;;16.30;8.63;;;;;;;14.77;29.97;100703.42;4357366;81;28493;-79
2022/03/17 10:57:23;;;;;;;18.30;8.48;;;;;;;14.52;30.02;100695.20;4343922;81;28497;-80
2022/03/17 11:03:24;;;;;;;18.45;9.45;;;;;;;14.82;29.86;100705.48;4351478;81;28488;-80
2022/03/17 11:09:26;;;;;;;13.78;7.53;;;;;;;14.57;29.83;100711.64;4315939;81;28485;-80
2022/03/17 11:15:30;;;;;;;17.98;9.20;;;;;;;15.15;29.24;100688.98;4369753;81;28527;-81
2022/03/17 11:21:32;;;;;;;15.43;8.85;;;;;;;15.70;29.07;100698.28;4331908;81;28553;-81
2022/03/17 11:27:47;;;;;;;16.35;9.50;;;;;;;15.61;29.12;100703.17;4363321;81;28480;-83
2022/03/17 11:33:54;;;;;;;16.93;9.43;;;;;;;15.53;28.79;100712.13;4345861;81;28525;-83
2022/03/17 11:40:19;;;;;;;16.52;9.55;;;;;;;15.67;28.92;100693.83;4339068;81;28509;-81
2022/03/17 11:46:43;;;;;;;15.73;8.83;;;;;;;15.75;28.82;100695.73;4355715;82;28522;-81
2022/03/17 11:52:56;;;;;;;14.47;9.00;;;;;;;15.86;28.68;100686.01;4333764;82;50702;-81
2022/03/17 11:58:58;;;;;;;14.18;8.10;;;;;;;15.87;28.92;100675.45;4329895;82;28570;-85
2022/03/17 12:05:12;;;;;;;16.52;9.10;;;;;;;15.55;28.30;100681.02;4317939;82;28516;-84
2022/03/17 12:11:15;;;;;;;15.80;9.10;;;;;;;15.13;28.24;100675.36;4327158;82;28477;-84
2022/03/17 12:17:19;;;;;;;15.38;8.33;;;;;;;16.01;28.91;100673.45;4336996;82;28498;-84
2022/03/17 12:23:46;;;;;;;15.80;8.60;;;;;;;16.65;27.61;100665.42;4333974;82;28508;-83
2022/03/17 12:29:59;;;;;;;13.38;7.92;;;;;;;15.95;27.74;100672.18;4339862;81;28472;-81
2022/03/17 12:36:06;;;;;;;11.88;7.17;;;;;;;16.50;27.78;100661.77;4338770;81;28556;-70
2022/03/17 12:42:28;;;;;;;13.38;7.60;;;;;;;13.66;29.42;100675.89;4341446;82;28532;-79
2022/03/17 12:48:31;;;;;;;14.68;7.42;;;;;;;14.30;29.29;100665.77;4341763;82;28545;-78
2022/03/17 12:54:32;;;;;;;12.60;7.28;;;;;;;14.81;29.54;100664.05;4325921;82;28523;-89
2022/03/17 13:00:42;;;;;;;11.50;7.00;;;;;;;14.75;28.50;100671.17;4332881;82;28508;-89
2022/03/17 13:06:54;;;;;;;13.90;7.45;;;;;;;14.88;28.45;100668.06;4329964;82;28517;-86
2022/03/17 13:19:16;;;;;;;10.98;6.17;;;;;;;14.53;28.49;100663.06;4344577;82;28494;-87
2022/03/17 13:25:22;;;;;;;13.10;6.35;;;;;;;14.56;27.31;100663.98;4347688;82;28538;-88
2022/03/17 13:31:44;;;;;;;11.18;5.78;;;;;;;14.75;27.80;100658.14;4318892;81;28489;-89
2022/03/17 13:37:47;;;;;;;8.00;5.03;;;;;;;14.67;27.34;100652.45;4340165;81;28512;-88
2022/03/17 13:43:54;;;;;;;12.05;6.33;;;;;;;14.88;27.16;100662.64;4324101;82;28447;-88
2022/03/17 13:50:23;;;;;;;11.43;5.75;;;;;;;14.65;27.24;100647.78;4322129;82;28476;-88
2022/03/17 13:56:27;;;;;;;9.20;4.85;;;;;;;14.71;26.71;100658.27;4329040;82;28503;-88
2022/03/17 14:02:31;;;;;;;9.43;5.15;;;;;;;14.66;26.35;100655.36;4340318;82;28453;-88
2022/03/17 14:08:40;;;;;;;10.45;5.03;;;;;;;13.60;25.78;100664.06;4319037;82;28469;-89
2022/03/17 14:14:41;;;;;;;12.43;5.25;;;;;;;14.44;25.87;100653.84;4334596;82;28486;-89
2022/03/17 14:20:42;;;;;;;12.25;5.15;;;;;;;14.26;25.84;100666.72;4317535;82;28489;-89
2022/03/17 14:26:47;;;;;;;7.85;4.00;;;;;;;14.68;26.03;100662.73;4359691;82;28488;-90
2022/03/17 14:32:48;;;;;;;5.83;3.85;;;;;;;14.41;25.08;100669.14;4321415;81;28495;-88
2022/03/17 14:38:56;;;;;;;5.83;3.35;;;;;;;14.63;25.06;100661.53;4339847;81;28490;-89
2022/03/17 14:44:54;;;;;;;8.63;4.50;;;;;;;15.22;23.76;100662.38;4356240;81;28510;-89
2022/03/17 14:50:56;;;;;;;8.35;4.03;;;;;;;14.52;25.77;100661.38;4456631;78;28486;-89
2022/03/17 14:56:57;;;;;;;8.20;4.10;;;;;;;14.26;24.99;100671.31;4305424;81;28495;-89
2022/03/17 15:02:58;;;;;;;8.88;3.92;;;;;;;13.74;24.80;100674.83;4494063;79;28528;-87
2022/03/17 15:09:00;;;;;;;8.13;4.20;;;;;;;14.01;24.58;100682.33;4415481;78;28522;-88
2022/03/17 15:15:02;;;;;;;12.33;5.12;;;;;;;13.50;25.71;100683.39;4419981;79;28509;-89
2022/03/17 15:21:04;;;;;;;10.32;5.42;;;;;;;13.25;26.58;100671.86;4365484;80;28492;-88
2022/03/17 15:33:26;;;;;;;11.85;6.17;;;;;;;13.30;26.64;100689.30;4359308;81;28536;-88
2022/03/17 15:39:27;;;;;;;12.15;6.40;;;;;;;13.34;27.62;100690.56;4393340;81;28510;-87
2022/03/17 15:45:28;;;;;;;11.22;5.80;;;;;;;13.02;29.01;100687.12;4393196;81;28506;-88
2022/03/17 15:51:30;;;;;;;13.08;6.45;;;;;;;13.04;29.49;100687.73;4363957;81;28446;-88
2022/03/17 15:57:31;;;;;;;15.58;6.42;;;;;;;12.89;30.01;100703.31;4360726;81;28479;-88
2022/03/17 16:03:35;;;;;;;12.23;5.95;;;;;;;12.88;30.07;100711.92;4395187;81;28465;-89
2022/03/17 16:15:59;;;;;;;11.63;6.25;;;;;;;12.45;30.63;100724.37;4359706;80;28480;-87
2022/03/17 16:22:02;;;;;;;11.68;6.40;;;;;;;12.18;31.05;100719.70;4410702;79;28532;-88
2022/03/17 16:28:04;;;;;;;14.70;6.70;;;;;;;12.07;31.21;100718.92;4382939;80;28466;-86
2022/03/17 16:34:05;;;;;;;15.53;6.62;;;;;;;11.71;31.44;100720.25;4426158;80;28505;-89
2022/03/17 16:40:07;;;;;;;19.37;10.03;;;;;;;11.76;31.35;100730.94;4436993;80;28595;-82
2022/03/17 16:46:12;;;;;;;19.42;9.38;;;;;;;12.01;30.87;100739.39;4431044;80;28521;-84
2022/03/17 16:52:13;;;;;;;17.52;8.53;;;;;;;11.86;30.91;100761.88;4424039;80;28553;-82
2022/03/17 16:58:17;;;;;;;17.12;9.05;;;;;;;11.70;31.04;100758.97;4436504;80;28453;-82
2022/03/17 17:04:18;;;;;;;17.50;9.83;;;;;;;11.90;30.85;100764.20;4430973;80;28531;-82
2022/03/17 17:10:20;;;;;;;19.20;8.38;;;;;;;10.98;31.66;100775.14;4419195;80;28464;-84
2022/03/17 17:16:22;;;;;;;16.82;8.73;;;;;;;11.11;31.45;100787.06;4441279;80;28512;-85
2022/03/17 17:22:23;;;;;;;17.27;8.88;;;;;;;10.73;31.68;100795.68;4434853;80;28583;-85
2022/03/17 17:34:45;;;;;;;15.75;8.23;;;;;;;10.85;31.50;100810.80;4409364;80;28480;-83
2022/03/17 17:40:46;;;;;;;15.90;8.28;;;;;;;10.72;31.73;100812.00;4392388;80;28567;-82
2022/03/17 17:46:47;;;;;;;17.92;7.72;;;;;;;10.57;31.91;100818.74;4431384;80;28480;-83
2022/03/17 17:52:49;;;;;;;14.80;7.62;;;;;;;10.54;31.87;100820.47;4401480;80;28512;-84
2022/03/17 17:58:54;;;;;;;15.93;7.37;;;;;;;10.28;32.09;100817.20;4406311;80;28525;-86
2022/03/17 18:04:55;;;;;;;18.32;8.00;;;;;;;10.37;32.04;100819.80;4425949;80;28477;-83
2022/03/17 18:10:57;;;;;;;13.45;6.95;;;;;;;10.49;31.71;100823.72;4422553;80;28553;-85
2022/03/17 18:16:59;;;;;;;13.95;7.55;;;;;;;10.24;31.96;100826.64;4420837;80;28560;-84
2022/03/17 18:23:06;;;;;;;14.87;7.50;;;;;;;10.36;31.91;100836.92;4410473;80;28519;-81
2022/03/17 18:29:09;;;;;;;20.90;8.78;;;;;;;10.16;31.88;100838.84;4424368;80;28513;-81
2022/03/17 18:35:12;;;;;;;15.45;7.53;;;;;;;10.17;31.89;100848.05;4409363;79;28581;-83
2022/03/17 18:41:16;;;;;;;15.48;7.72;;;;;;;10.27;31.64;100849.63;4405293;79;28530;-83
2022/03/17 18:47:21;;;;;;;15.03;7.75;;;;;;;10.18;31.61;100859.65;4416567;79;28594;-83
2022/03/17 18:53:22;;;;;;;14.43;7.30;;;;;;;10.15;31.45;100859.50;4400723;79;28455;-82
2022/03/17 18:59:25;;;;;;;15.32;7.08;;;;;;;10.10;31.29;100868.63;4418419;79;28586;-82
2022/03/17 19:05:27;;;;;;;15.93;7.67;;;;;;;10.09;31.27;100872.84;4402737;79;28531;-84
2022/03/17 19:11:28;;;;;;;19.32;8.05;;;;;;;9.96;31.45;100880.17;4403645;79;28511;-82
2022/03/17 19:17:30;;;;;;;17.80;7.85;;;;;;;9.96;31.26;100887.73;4420465;79;28519;-81
2022/03/17 19:23:32;;;;;;;17.23;8.55;;;;;;;9.89;31.28;100902.91;4411664;79;28528;-83
2022/03/17 19:29:34;;;;;;;18.27;8.58;;;;;;;9.87;31.31;100913.82;4428252;79;28490;-81
2022/03/17 19:35:35;;;;;;;18.35;9.33;;;;;;;9.51;31.61;100901.00;4395724;79;28513;-79
2022/03/17 19:41:37;;;;;;;21.35;8.80;;;;;;;9.39;31.79;100901.91;4382759;80;28465;-82
2022/03/17 19:47:38;;;;;;;24.40;10.03;;;;;;;9.23;32.06;100898.81;4395929;80;28559;-82
2022/03/17 19:53:40;;;;;;;21.62;10.15;;;;;;;9.29;31.86;100893.24;4400467;80;28471;-83
2022/03/17 19:59:41;;;;;;;24.50;10.70;;;;;;;9.22;31.95;100894.98;4404604;80;28499;-82
2022/03/17 20:05:43;;;;;;;23.77;10.10;;;;;;;9.16;32.03;100900.52;4395775;79;28469;-83
2022/03/17 20:18:04;;;;;;;27.32;11.22;;;;;;;9.22;31.57;100906.54;4398556;79;28457;-83
2022/03/17 20:24:06;;;;;;;25.10;11.22;;;;;;;9.29;31.45;100910.69;4388134;80;28473;-82
2022/03/17 20:30:09;;;;;;;23.77;10.53;;;;;;;9.26;31.52;100919.11;4392262;79;28491;-83
2022/03/17 20:36:11;;;;;;;28.30;12.53;;;;;;;9.27;31.20;100918.94;4377670;79;28490;-83
2022/03/17 20:42:13;;;;;;;23.05;10.85;;;;;;;9.11;31.41;100918.52;4391565;79;28532;-81
2022/03/17 20:48:15;;;;;;;26.15;12.90;;;;;;;9.14;31.36;100921.34;4392303;79;28514;-80
2022/03/17 20:54:16;;;;;;;27.90;12.58;;;;;;;8.95;31.73;100931.47;4390767;79;28840;-84
2022/03/17 21:00:19;;;;;;;26.50;11.85;;;;;;;8.74;32.07;100934.22;4390017;79;28520;-83
2022/03/17 21:06:22;;;;;;;30.23;13.22;;;;;;;8.51;32.45;100955.58;4374812;79;28517;-83
2022/03/17 21:12:24;;;;;;;33.60;13.20;;;;;;;8.47;32.57;100956.88;4381550;79;28556;-82
2022/03/17 21:18:26;;;;;;;28.67;12.43;;;;;;;8.59;32.24;100956.92;4368524;79;28563;-82
2022/03/17 21:24:28;;;;;;;25.15;12.40;;;;;;;8.43;32.28;100955.56;4381222;79;28553;-81
2022/03/17 21:30:31;;;;;;;30.95;12.75;;;;;;;8.20;32.65;100954.91;4381878;79;28497;-81
2022/03/17 21:36:33;;;;;;;27.52;12.90;;;;;;;8.43;32.29;100960.92;4384783;79;28559;-79
2022/03/17 21:42:35;;;;;;;25.62;12.03;;;;;;;8.27;32.27;100958.58;4364646;79;28528;-83
2022/03/17 21:48:37;;;;;;;27.45;11.28;;;;;;;8.44;31.95;100971.48;4388722;79;28525;-83
2022/03/17 21:54:40;;;;;;;28.12;12.13;;;;;;;8.55;31.74;100980.22;4392321;79;28523;-83
2022/03/17 22:00:42;;;;;;;26.25;11.00;;;;;;;8.18;32.22;100979.70;4409359;79;28535;-82
2022/03/17 22:06:43;;;;;;;29.15;10.90;;;;;;;7.89;32.32;101001.11;4384175;79;28490;-82
2022/03/17 22:12:45;;;;;;;23.27;10.70;;;;;;;8.04;32.06;100998.09;4374683;79;28591;-82
2022/03/17 22:18:46;;;;;;;30.75;11.88;;;;;;;7.94;32.23;101022.38;4378267;79;28729;-80
2022/03/17 22:24:48;;;;;;;25.00;10.95;;;;;;;7.51;32.62;101015.73;4398611;79;28516;-81
2022/03/17 22:30:49;;;;;;;23.35;10.00;;;;;;;7.81;32.43;101018.00;4387175;79;28560;-81
2022/03/17 22:36:50;;;;;;;22.55;9.48;;;;;;;8.01;32.22;101021.70;4391411;80;28525;-81
2022/03/17 22:42:52;;;;;;;23.62;10.18;;;;;;;7.81;32.28;101018.00;4411119;80;28508;-81
2022/03/17 22:48:56;;;;;;;20.12;9.25;;;;;;;7.60;32.57;101011.75;4407057;79;28586;-82
2022/03/17 22:54:59;;;;;;;18.32;8.65;;;;;;;7.50;32.70;101015.39;4429685;79;28535;-82
2022/03/17 23:01:01;;;;;;;21.35;9.45;;;;;;;7.44;32.79;101022.72;4448628;79;28569;-82
2022/03/17 23:07:03;;;;;;;20.27;8.85;;;;;;;7.46;32.81;101020.74;4384569;79;28483;-83
2022/03/17 23:13:07;;;;;;;20.25;9.45;;;;;;;7.54;32.84;101018.07;4411125;79;28540;-83
2022/03/17 23:19:09;;;;;;;18.73;8.60;;;;;;;7.66;32.44;101020.47;4438452;79;28500;-82
2022/03/17 23:25:10;;;;;;;21.27;8.13;;;;;;;7.53;32.38;101025.77;4436040;79;28537;-81
2022/03/17 23:31:12;;;;;;;15.10;7.28;;;;;;;7.88;31.99;101032.91;4440534;80;28533;-82
2022/03/17 23:37:14;;;;;;;20.12;8.03;;;;;;;7.59;32.17;101035.50;4399149;79;28466;-82
2022/03/17 23:43:16;;;;;;;16.85;7.92;;;;;;;7.83;31.94;101043.27;4385262;79;28438;-81
2022/03/17 23:49:17;;;;;;;14.58;7.80;;;;;;;7.94;31.87;101046.48;4371513;80;28491;-82
2022/03/17 23:55:19;;;;;;;15.40;6.87;;;;;;;8.02;31.82;101045.66;4386498;79;29763;-81
